Time;durP1;ratioP1;P1;durP2;ratioP2;P2;SDS_P1;SDS_P2;PMS_P1;PMS_P2;Temp;Humidity;BMP_temperature;BMP_pressure;BME280_temperature;BME280_humidity;BME280_pressure;Samples;Min_cycle;Max_cycle;Signal;HPM_P1;HPM_P2
2021/04/09 00:03:45;;;;;;;19.70;13.85;;;;;;;2.59;43.13;101560.59;5184236;27;20122;-83
2021/04/09 00:07:27;;;;;;;;;;;;;;;;;;;;;
2021/04/09 00:56:16;;;;;;;25.02;14.38;;;;;;;2.41;45.37;101575.28;5182793;27;20433;-83
2021/04/09 02:20:09;;;;;;;;;;;;;;;;;;;;;
2021/04/09 02:27:32;;;;;;;;;;;;;;;;;;;;;
2021/04/09 03:00:06;;;;;;;;;;;;;;;;;;;;;
2021/04/09 04:22:06;;;;;;;19.62;6.47;;;;;;;0.41;47.47;101542.09;5291622;26;20037;-82
2021/04/09 04:24:41;;;;;;;13.52;6.93;;;;;;;0.60;47.12;101541.38;5276081;27;20053;-82
2021/04/09 04:27:07;;;;;;;19.50;8.77;;;;;;;0.51;48.16;101540.88;5274051;27;20073;-82
2021/04/09 04:29:34;;;;;;;21.52;10.15;;;;;;;0.66;47.31;101541.69;5275888;27;20108;-82
2021/04/09 04:32:00;;;;;;;12.90;7.95;;;;;;;0.43;48.51;101537.88;5274167;27;20046;-82
2021/04/09 04:34:26;;;;;;;22.02;9.60;;;;;;;0.43;48.72;101535.28;5276555;27;20054;-82
2021/04/09 04:36:53;;;;;;;23.52;8.85;;;;;;;0.49;48.94;101539.91;5275756;27;20452;-82
2021/04/09 04:39:21;;;;;;;10.57;6.50;;;;;;;0.38;49.80;101536.78;5275886;27;20048;-82
2021/04/09 04:41:47;;;;;;;15.93;8.50;;;;;;;0.70;48.14;101534.09;5273935;27;20079;-82
2021/04/09 04:44:14;;;;;;;14.18;5.50;;;;;;;1.30;47.07;101533.75;5274210;27;20066;-81
2021/04/09 05:48:08;;;;;;;22.00;13.77;;;;;;;11.44;31.20;101513.91;5287451;26;20084;31
2021/04/09 11:07:11;;;;;;;15.73;4.57;;;;;;;22.79;16.82;101183.50;5296660;26;20032;-80
2021/04/09 11:09:58;;;;;;;10.77;3.87;;;;;;;23.39;16.89;101177.28;5326476;27;20099;-81
2021/04/09 12:11:22;;;;;;;9.32;3.58;;;;;;;22.65;17.14;101092.19;5314953;26;20393;-80
2021/04/09 12:14:08;;;;;;;8.70;4.45;;;;;;;23.47;16.13;101084.78;5307737;27;20057;-80
2021/04/09 12:16:40;;;;;;;5.43;3.53;;;;;;;23.86;15.69;101086.47;5324934;27;20334;-80
2021/04/09 12:19:07;;;;;;;5.93;4.00;;;;;;;23.45;16.48;101073.25;5304038;27;20071;-80
2021/04/09 12:21:36;;;;;;;9.38;3.97;;;;;;;23.57;16.82;101075.34;5326650;27;20107;-81
2021/04/09 12:24:03;;;;;;;18.80;5.05;;;;;;;24.17;16.41;101074.16;5327199;27;20026;-80
2021/04/09 13:18:38;;;;;;;8.20;5.10;;;;;;;23.37;17.33;100988.78;5286719;26;20463;31
2021/04/09 14:40:21;;;;;;;5.60;3.63;;;;;;;22.54;19.55;100885.59;5285948;26;20059;31
2021/04/09 14:42:48;;;;;;;5.80;3.67;;;;;;;22.39;19.71;100877.34;5292430;27;20124;-81
2021/04/09 14:45:18;;;;;;;6.23;3.10;;;;;;;22.13;20.45;100873.19;5292133;27;20108;-82
2021/04/09 14:47:47;;;;;;;5.47;3.22;;;;;;;22.50;19.72;100866.16;5259875;27;20053;-83
2021/04/09 14:50:17;;;;;;;9.00;3.25;;;;;;;22.18;19.96;100867.66;5262327;27;20062;-81
2021/04/09 14:52:48;;;;;;;4.53;3.08;;;;;;;21.70;20.43;100861.75;5261865;27;20130;-80
2021/04/09 14:55:34;;;;;;;14.70;4.80;;;;;;;21.39;20.93;100853.38;5260066;27;20115;-81
2021/04/09 14:58:10;;;;;;;4.32;2.00;;;;;;;20.77;20.94;100863.06;5274742;27;20022;-81
2021/04/09 15:00:38;;;;;;;4.12;2.42;;;;;;;20.93;20.56;100861.47;5275113;27;20058;-81
2021/04/09 15:03:10;;;;;;;3.40;1.67;;;;;;;21.12;20.73;100861.59;5291356;27;20057;-80
2021/04/09 15:05:39;;;;;;;4.28;2.03;;;;;;;20.94;20.69;100843.66;5257701;27;20054;-81
2021/04/09 15:08:23;;;;;;;5.37;1.90;;;;;;;20.87;20.53;100851.91;5258561;27;20056;-81
2021/04/09 15:10:50;;;;;;;5.18;2.00;;;;;;;20.73;21.09;100853.41;5258738;27;20471;-81
2021/04/09 15:13:21;;;;;;;6.80;2.37;;;;;;;20.99;20.93;100849.69;5260268;27;20062;-82
2021/04/09 15:15:47;;;;;;;11.52;2.70;;;;;;;21.40;20.21;100839.91;5258236;27;20049;-82
2021/04/09 15:18:13;;;;;;;6.05;2.22;;;;;;;21.01;20.96;100843.34;5258519;27;20122;-81
2021/04/09 15:20:42;;;;;;;4.65;2.00;;;;;;;21.51;20.55;100834.09;5259591;27;20058;-81
2021/04/09 15:23:08;;;;;;;4.47;2.03;;;;;;;21.03;20.78;100833.47;5259293;27;20347;-81
2021/04/09 15:25:35;;;;;;;4.57;1.80;;;;;;;20.70;21.17;100826.84;5258714;27;20513;-82
2021/04/09 15:28:02;;;;;;;7.35;2.50;;;;;;;20.85;21.10;100824.44;5259262;27;20092;-81
2021/04/09 15:30:30;;;;;;;3.80;1.83;;;;;;;21.00;21.23;100824.69;5275261;27;20038;-82
2021/04/09 15:32:57;;;;;;;3.12;1.90;;;;;;;20.73;21.67;100827.56;5274545;27;20078;-83
2021/04/09 15:35:24;;;;;;;3.42;1.65;;;;;;;20.40;22.17;100825.31;5256609;27;20742;-81
2021/04/09 15:37:50;;;;;;;3.92;2.15;;;;;;;19.80;23.06;100817.91;5273606;27;20084;-82
2021/04/09 15:40:18;;;;;;;2.60;1.52;;;;;;;20.22;22.37;100828.72;5257445;27;20447;-82
2021/04/09 15:42:44;;;;;;;2.58;1.40;;;;;;;19.47;23.37;100823.47;5272313;27;20121;-81
2021/04/09 15:45:12;;;;;;;3.25;1.77;;;;;;;19.11;23.77;100817.66;5257786;27;20118;-82
2021/04/09 15:47:40;;;;;;;5.75;1.40;;;;;;;19.81;23.52;100820.50;5255902;27;20093;-82
2021/04/09 15:50:12;;;;;;;3.00;1.60;;;;;;;19.52;23.57;100818.84;5256704;27;20096;-82
2021/04/09 15:52:43;;;;;;;5.55;2.12;;;;;;;19.45;23.54;100810.22;5255840;27;20053;-82
2021/04/09 15:55:29;;;;;;;3.40;1.45;;;;;;;19.52;23.37;100802.87;5271781;27;20054;-81
2021/04/09 15:58:16;;;;;;;6.10;1.70;;;;;;;19.34;23.71;100804.41;5270508;27;20062;-82
2021/04/09 16:00:51;;;;;;;2.60;1.75;;;;;;;19.31;23.58;100804.50;5256011;27;20102;-82
2021/04/09 16:03:49;;;;;;;4.30;1.50;;;;;;;18.99;24.02;100800.31;5285337;27;20070;-82
2021/04/09 16:06:22;;;;;;;3.20;1.58;;;;;;;19.21;23.78;100805.78;5288809;27;20056;-82
2021/04/09 16:08:50;;;;;;;2.37;1.15;;;;;;;19.16;23.81;100800.59;5289479;27;20076;-82
2021/04/09 16:11:17;;;;;;;2.65;1.30;;;;;;;18.89;24.37;100794.44;5255474;27;20085;-83
2021/04/09 16:13:44;;;;;;;4.80;1.33;;;;;;;18.58;24.36;100802.53;5254973;27;20113;-83
2021/04/09 16:16:10;;;;;;;2.97;1.73;;;;;;;19.11;24.14;100791.03;5255008;27;20064;-83
2021/04/09 16:18:37;;;;;;;5.18;1.62;;;;;;;18.78;24.39;100794.78;5254801;27;20596;-83
2021/04/09 16:21:05;;;;;;;4.37;1.45;;;;;;;18.44;24.60;100796.75;5270965;27;20081;-83
2021/04/09 16:23:32;;;;;;;3.47;1.45;;;;;;;18.60;24.70;100795.38;5254753;27;20648;-83
2021/04/09 16:25:58;;;;;;;10.10;2.33;;;;;;;18.84;24.46;100791.91;5254988;27;20060;-83
2021/04/09 16:28:25;;;;;;;6.57;2.92;;;;;;;18.50;25.02;100794.81;5254229;27;20054;-83
2021/04/09 16:30:52;;;;;;;6.28;2.50;;;;;;;18.86;24.60;100793.66;5271164;27;20030;-83
2021/04/09 16:33:19;;;;;;;6.43;1.33;;;;;;;19.26;24.24;100791.34;5254911;27;20058;-83
2021/04/09 16:35:45;;;;;;;3.03;1.92;;;;;;;19.15;24.45;100793.53;5271373;27;20119;-83
2021/04/09 16:38:12;;;;;;;3.10;1.45;;;;;;;19.13;24.81;100791.84;5261142;27;20053;-84
2021/04/09 16:40:38;;;;;;;3.55;1.37;;;;;;;19.20;24.82;100785.38;5255333;27;20062;-84
2021/04/09 16:43:05;;;;;;;2.97;1.65;;;;;;;19.37;24.57;100785.63;5254588;27;20066;-84
2021/04/09 16:45:33;;;;;;;4.70;1.92;;;;;;;19.42;24.63;100785.50;5254315;27;20053;-84
2021/04/09 16:47:59;;;;;;;3.33;1.42;;;;;;;18.96;25.26;100781.78;5254253;27;20074;-84
2021/04/09 16:50:28;;;;;;;3.72;2.20;;;;;;;19.11;25.16;100785.69;5271000;27;20065;-83
2021/04/09 16:52:54;;;;;;;3.42;1.50;;;;;;;17.84;26.79;100782.66;5271286;27;20069;-84
2021/04/09 16:55:22;;;;;;;5.28;1.80;;;;;;;18.11;26.59;100787.13;5288607;27;20104;-83
2021/04/09 16:57:48;;;;;;;3.70;2.45;;;;;;;18.34;26.19;100777.56;5288892;27;20130;-84
2021/04/09 17:00:16;;;;;;;3.12;1.58;;;;;;;18.39;26.19;100776.50;5254430;27;20112;-84
2021/04/09 17:02:46;;;;;;;3.65;1.77;;;;;;;18.05;26.58;100770.50;5289371;27;20080;-84
2021/04/09 17:05:13;;;;;;;5.30;2.22;;;;;;;17.86;26.90;100770.22;5254426;27;20076;-84
2021/04/09 17:07:40;;;;;;;3.33;1.67;;;;;;;18.16;26.43;100768.38;5254799;27;20108;-84
2021/04/09 17:10:12;;;;;;;3.75;1.45;;;;;;;18.49;26.10;100766.44;5255245;27;20058;-84
2021/04/09 17:12:39;;;;;;;6.75;1.50;;;;;;;18.50;26.17;100764.62;5271173;27;20084;-83
2021/04/09 17:15:08;;;;;;;3.33;2.00;;;;;;;18.50;26.32;100765.53;5271477;27;20092;-84
2021/04/09 17:17:34;;;;;;;2.60;1.45;;;;;;;18.13;26.71;100764.03;5255041;27;20132;-84
2021/04/09 17:20:01;;;;;;;6.62;1.50;;;;;;;18.49;26.14;100760.25;5255089;27;20345;-83
2021/04/09 17:22:28;;;;;;;4.43;1.85;;;;;;;18.46;26.15;100771.00;5255034;27;20542;-84
2021/04/09 17:24:55;;;;;;;9.02;3.15;;;;;;;18.55;26.20;100765.38;5255347;27;20053;-84
2021/04/09 17:27:22;;;;;;;6.60;2.85;;;;;;;18.43;26.54;100763.97;5271834;27;20054;-84
2021/04/09 17:29:53;;;;;;;4.97;2.33;;;;;;;18.09;27.39;100759.75;5271281;27;20575;-83
2021/04/09 17:32:19;;;;;;;4.12;2.12;;;;;;;18.14;27.39;100760.44;5255097;27;20076;-83
2021/04/09 17:34:46;;;;;;;5.45;2.50;;;;;;;17.52;28.56;100763.19;5290034;27;20058;-84
2021/04/09 17:37:13;;;;;;;3.97;2.08;;;;;;;17.45;28.73;100764.28;5254954;27;20062;-84
2021/04/09 17:39:40;;;;;;;5.30;1.75;;;;;;;17.26;29.18;100766.56;5271899;27;20759;-84
2021/04/09 17:42:08;;;;;;;3.33;1.30;;;;;;;17.71;28.39;100768.84;5271033;27;20105;-84
2021/04/09 17:44:34;;;;;;;3.17;1.52;;;;;;;17.50;28.67;100767.69;5290082;27;20491;-83
2021/04/09 17:47:15;;;;;;;6.78;1.77;;;;;;;17.47;28.63;100765.09;5254521;27;20193;-85
2021/04/09 17:49:42;;;;;;;5.40;1.98;;;;;;;17.31;29.02;100771.75;5255140;27;20112;-84
2021/04/09 17:52:15;;;;;;;5.82;2.17;;;;;;;17.10;29.71;100778.53;5255050;27;20058;-86
2021/04/09 17:54:42;;;;;;;3.37;1.70;;;;;;;17.10;29.48;100771.44;5290059;27;20443;-83
2021/04/09 17:57:12;;;;;;;2.90;1.52;;;;;;;16.94;30.03;100773.63;5255320;27;20068;-84
2021/04/09 17:59:39;;;;;;;5.55;2.12;;;;;;;16.63;30.59;100780.59;5255465;27;20073;-84
2021/04/09 18:02:06;;;;;;;4.65;2.08;;;;;;;17.02;29.70;100781.38;5271427;27;20090;-84
2021/04/09 18:04:33;;;;;;;4.55;2.45;;;;;;;16.92;30.10;100786.06;5255416;27;20069;-84
2021/04/09 18:07:00;;;;;;;4.47;1.73;;;;;;;17.01;30.03;100788.47;5254905;27;20061;-85
2021/04/09 18:09:26;;;;;;;3.80;1.80;;;;;;;16.85;30.26;100792.41;5255206;27;20070;-84
2021/04/09 18:11:53;;;;;;;2.20;1.30;;;;;;;16.59;30.81;100798.38;5255174;27;20459;-84
2021/04/09 18:14:20;;;;;;;3.75;1.70;;;;;;;16.78;30.32;100796.16;5271309;27;20076;-84
2021/04/09 18:16:47;;;;;;;4.75;1.87;;;;;;;16.74;30.32;100800.63;5254681;27;20065;-84
2021/04/09 18:19:14;;;;;;;12.32;2.30;;;;;;;16.59;30.64;100798.38;5254781;27;20605;-84
2021/04/09 18:21:41;;;;;;;9.75;2.58;;;;;;;16.79;30.51;100803.19;5255056;27;20072;-83
2021/04/09 18:24:12;;;;;;;3.12;2.10;;;;;;;16.10;32.12;100808.31;5255606;27;20054;-84
2021/04/09 18:26:40;;;;;;;5.87;2.10;;;;;;;15.58;33.00;100817.31;5271201;27;20098;-83
2021/04/09 18:29:06;;;;;;;5.72;2.35;;;;;;;15.47;32.69;100811.38;5271118;27;20066;-83
2021/04/09 18:31:33;;;;;;;4.97;1.77;;;;;;;15.15;33.52;100815.47;5255391;27;20058;-83
2021/04/09 18:34:00;;;;;;;6.47;2.15;;;;;;;14.91;33.88;100815.88;5255129;27;20065;-83
2021/04/09 18:36:37;;;;;;;4.50;1.73;;;;;;;14.85;33.88;100819.50;5270246;27;20060;-83
2021/04/09 18:39:04;;;;;;;5.72;2.03;;;;;;;14.56;34.16;100816.47;5289793;27;20117;-83
2021/04/09 18:41:31;;;;;;;5.07;1.55;;;;;;;14.14;34.66;100810.88;5254710;27;20061;-84
2021/04/09 18:43:57;;;;;;;3.12;1.48;;;;;;;14.01;35.04;100807.53;5255382;27;20054;-83
2021/04/09 18:46:29;;;;;;;4.28;1.40;;;;;;;13.86;35.47;100812.12;5255226;27;20054;-84
2021/04/09 18:48:56;;;;;;;2.75;1.42;;;;;;;14.05;35.40;100814.53;5271511;27;20066;-84
2021/04/09 18:51:23;;;;;;;6.40;1.70;;;;;;;13.92;35.57;100812.94;5255031;27;20058;-84
2021/04/09 18:53:50;;;;;;;3.37;1.30;;;;;;;13.90;35.84;100820.00;5255534;27;20085;-84
2021/04/09 18:56:17;;;;;;;5.93;1.55;;;;;;;13.97;35.88;100813.75;5255270;27;20352;-84
2021/04/09 18:58:49;;;;;;;2.03;1.23;;;;;;;14.00;35.66;100819.87;5271191;27;20491;-84
2021/04/09 19:01:15;;;;;;;3.60;1.30;;;;;;;13.98;35.86;100820.78;5255233;27;20088;-84
2021/04/09 19:03:43;;;;;;;3.22;1.30;;;;;;;14.00;35.84;100826.91;5256036;27;20344;-83
2021/04/09 19:06:10;;;;;;;3.20;1.60;;;;;;;13.99;35.83;100827.81;5255684;27;20541;-89
2021/04/09 19:08:40;;;;;;;3.67;1.60;;;;;;;14.06;35.91;100822.44;5271455;27;20421;-84
2021/04/09 19:11:11;;;;;;;5.43;2.35;;;;;;;14.01;36.27;100820.75;5287882;27;20096;-84
2021/04/09 19:13:38;;;;;;;5.87;2.55;;;;;;;14.18;36.43;100818.75;5288907;27;20089;-84
2021/04/09 19:16:04;;;;;;;5.07;2.40;;;;;;;14.14;36.49;100819.69;5271586;27;20045;-84
2021/04/09 19:18:31;;;;;;;8.10;2.50;;;;;;;14.06;36.93;100821.56;5254666;27;20420;-83
2021/04/09 19:20:59;;;;;;;4.72;1.80;;;;;;;14.01;37.10;100826.91;5255412;27;20062;-84
2021/04/09 19:23:25;;;;;;;5.50;2.35;;;;;;;14.23;36.94;100818.69;5254947;27;20068;-83
2021/04/09 19:25:51;;;;;;;4.22;2.00;;;;;;;13.99;37.52;100825.19;5271267;27;20078;-84
2021/04/09 19:28:18;;;;;;;4.85;1.67;;;;;;;13.77;37.64;100832.50;5254946;27;20066;-83
2021/04/09 19:30:45;;;;;;;4.22;1.80;;;;;;;13.76;37.66;100831.59;5289125;27;20093;-84
2021/04/09 19:33:11;;;;;;;5.22;2.33;;;;;;;13.92;37.54;100826.16;5254378;27;20549;-84
2021/04/09 19:35:40;;;;;;;3.85;2.12;;;;;;;14.06;37.41;100824.22;5271222;27;20313;-84
2021/04/09 19:38:10;;;;;;;4.93;2.62;;;;;;;14.08;37.46;100825.06;5270861;27;20070;-84
2021/04/09 19:40:36;;;;;;;5.18;2.10;;;;;;;14.11;37.41;100825.00;5255017;27;20076;-84
2021/04/09 19:43:03;;;;;;;4.55;2.20;;;;;;;14.14;37.66;100819.69;5254474;27;20029;-84
2021/04/09 19:45:29;;;;;;;6.10;1.80;;;;;;;14.00;37.96;100822.53;5254919;27;20050;-85
2021/04/09 19:47:58;;;;;;;5.43;2.03;;;;;;;14.23;37.27;100818.69;5273485;27;20109;-85
2021/04/09 19:50:25;;;;;;;3.95;2.03;;;;;;;14.10;37.51;100812.69;5256862;27;20459;-84
2021/04/09 19:52:52;;;;;;;3.72;1.67;;;;;;;14.02;37.96;100804.00;5256343;27;20054;-84
2021/04/09 19:55:18;;;;;;;5.10;1.80;;;;;;;13.77;38.61;100812.25;5273737;27;20054;-84
2021/04/09 19:57:46;;;;;;;5.65;2.17;;;;;;;13.32;39.42;100808.34;5272755;27;20076;-85
2021/04/09 20:00:13;;;;;;;5.53;1.90;;;;;;;13.79;38.24;100812.22;5256480;27;20074;-84
2021/04/09 20:02:40;;;;;;;3.50;1.35;;;;;;;13.54;38.88;100806.37;5272149;27;20681;-84
2021/04/09 20:05:07;;;;;;;2.08;1.50;;;;;;;13.80;38.45;100809.56;5254956;27;20358;-84
2021/04/09 20:07:35;;;;;;;5.57;1.60;;;;;;;14.07;37.84;100816.25;5254842;27;20416;-84
2021/04/09 20:10:06;;;;;;;6.95;2.08;;;;;;;13.46;39.32;100811.72;5270954;27;20431;-84
2021/04/09 20:12:33;;;;;;;7.68;2.42;;;;;;;13.72;38.56;100808.78;5255000;27;20064;-84
2021/04/09 20:15:04;;;;;;;5.57;2.05;;;;;;;14.09;37.79;100808.31;5254611;27;20081;-84
2021/04/09 20:17:31;;;;;;;4.15;2.10;;;;;;;13.93;38.12;100818.19;5254380;27;20062;-84
2021/04/09 20:19:58;;;;;;;4.70;2.20;;;;;;;14.00;38.07;100811.06;5254992;27;20712;-84
2021/04/09 20:22:25;;;;;;;3.42;2.10;;;;;;;13.58;38.54;100808.94;5271465;27;20153;-84
2021/04/09 20:24:52;;;;;;;6.20;1.70;;;;;;;13.57;38.75;100811.59;5271449;27;20106;-84
2021/04/09 20:27:19;;;;;;;4.22;2.10;;;;;;;13.62;38.84;100812.44;5271881;27;20096;-83
2021/04/09 20:29:46;;;;;;;4.80;2.17;;;;;;;13.74;38.25;100808.78;5255170;27;20420;-84
2021/04/09 20:32:14;;;;;;;2.92;2.05;;;;;;;14.06;37.45;100808.38;5254660;27;20121;-83
2021/04/09 20:34:40;;;;;;;5.22;2.33;;;;;;;13.83;38.12;100811.31;5270542;27;20055;-83
2021/04/09 20:37:07;;;;;;;3.33;1.60;;;;;;;13.89;37.90;100815.63;5254562;27;20106;-84
2021/04/09 20:39:35;;;;;;;4.53;2.15;;;;;;;13.93;37.91;100815.56;5254757;27;20077;-84
2021/04/09 20:42:04;;;;;;;5.55;2.03;;;;;;;14.06;37.27;100809.22;5270264;27;20881;-83
2021/04/09 20:44:31;;;;;;;4.12;1.85;;;;;;;14.20;36.93;100813.44;5288676;27;20058;-83
2021/04/09 20:46:58;;;;;;;3.15;1.67;;;;;;;13.86;37.64;100820.06;5255137;27;20073;-84
2021/04/09 20:49:25;;;;;;;4.37;1.87;;;;;;;14.15;37.20;100817.91;5291301;27;20084;-84
2021/04/09 20:51:51;;;;;;;3.78;1.50;;;;;;;14.05;37.19;100804.81;5291249;27;20089;-84
2021/04/09 20:54:18;;;;;;;3.22;1.40;;;;;;;13.99;36.99;100810.19;5272664;27;20077;-84
2021/04/09 20:56:45;;;;;;;4.10;1.85;;;;;;;13.91;37.29;100805.91;5256430;27;20058;-84
2021/04/09 20:59:11;;;;;;;3.53;1.40;;;;;;;13.30;38.81;100805.75;5290976;27;20033;-84
2021/04/09 21:01:39;;;;;;;3.87;2.08;;;;;;;13.23;38.98;100809.28;5273064;27;20072;-84
2021/04/09 21:04:05;;;;;;;3.42;1.58;;;;;;;13.26;38.63;100811.06;5273415;27;20026;-87
2021/04/09 21:06:33;;;;;;;3.22;1.80;;;;;;;13.07;38.86;100807.72;5258124;27;20058;-84
2021/04/09 21:08:59;;;;;;;3.78;1.55;;;;;;;12.66;39.60;100798.38;5275132;27;20883;-85
2021/04/09 21:11:26;;;;;;;6.43;1.70;;;;;;;12.96;39.06;100792.84;5293328;27;20498;-85
2021/04/09 21:13:53;;;;;;;2.67;1.20;;;;;;;12.93;39.22;100798.12;5254751;27;20101;-85
2021/04/09 21:16:20;;;;;;;4.30;1.95;;;;;;;13.13;38.54;100799.72;5254983;27;20144;-85
2021/04/09 21:18:47;;;;;;;5.45;1.42;;;;;;;13.13;38.30;100797.97;5270859;27;20061;-84
2021/04/09 21:21:13;;;;;;;5.47;1.98;;;;;;;13.41;38.18;100792.41;5289397;27;20584;-85
2021/04/09 21:23:42;;;;;;;2.97;1.70;;;;;;;13.16;38.30;100792.66;5254617;27;20081;-85
2021/04/09 21:26:09;;;;;;;5.85;1.87;;;;;;;13.37;37.81;100793.34;5254615;27;20062;-84
2021/04/09 21:28:36;;;;;;;4.28;1.73;;;;;;;13.06;38.88;100790.09;5254644;27;20061;-89
2021/04/09 21:31:02;;;;;;;4.53;1.37;;;;;;;12.95;38.92;100790.22;5254911;27;20265;-85
2021/04/09 21:33:29;;;;;;;2.55;1.27;;;;;;;12.60;39.39;100788.75;5254158;27;20058;-85
2021/04/09 21:35:55;;;;;;;4.57;1.35;;;;;;;13.02;38.55;100783.13;5254533;27;20062;-84
2021/04/09 21:38:22;;;;;;;3.03;1.50;;;;;;;13.13;38.14;100779.50;5254315;27;20109;-84
2021/04/09 21:40:48;;;;;;;3.97;1.40;;;;;;;13.10;38.29;100773.38;5288627;27;20070;-85
2021/04/09 21:43:16;;;;;;;2.62;1.37;;;;;;;13.06;38.26;100775.19;5254646;27;20058;-85
2021/04/09 21:45:44;;;;;;;3.80;1.17;;;;;;;13.01;38.24;100768.19;5275581;27;20720;-85
2021/04/09 21:48:13;;;;;;;5.30;1.80;;;;;;;13.02;37.91;100775.22;5276041;27;20068;-85
2021/04/09 21:50:40;;;;;;;5.00;2.63;;;;;;;12.84;38.72;100771.84;5275457;27;20026;-85
2021/04/09 21:53:06;;;;;;;10.52;1.80;;;;;;;12.84;38.87;100771.00;5259549;27;20550;-85
2021/04/09 21:55:33;;;;;;;3.42;1.80;;;;;;;13.08;38.10;100768.09;5273529;27;20070;-84
2021/04/09 21:57:59;;;;;;;6.55;2.17;;;;;;;13.25;37.73;100762.69;5271120;27;20070;-84
2021/04/09 22:00:29;;;;;;;3.25;1.20;;;;;;;12.84;38.41;100761.31;5289918;27;20121;-84
2021/04/09 22:02:56;;;;;;;4.40;1.30;;;;;;;12.95;37.99;100764.72;5271487;27;20436;-84
2021/04/09 22:05:24;;;;;;;1.90;1.00;;;;;;;12.85;38.25;100764.81;5271673;27;20096;-84
2021/04/09 22:07:50;;;;;;;4.00;1.30;;;;;;;12.90;38.12;100761.25;5255984;27;20071;-84
2021/04/09 22:10:26;;;;;;;2.37;0.90;;;;;;;12.69;38.55;100750.91;5271442;27;20113;-84
2021/04/09 22:12:53;;;;;;;2.53;1.25;;;;;;;12.94;38.24;100757.72;5255009;27;20066;-84
2021/04/09 22:15:19;;;;;;;4.65;1.52;;;;;;;12.58;38.92;100750.13;5289660;27;20061;-85
2021/04/09 22:17:46;;;;;;;3.15;1.87;;;;;;;12.58;39.11;100750.13;5271327;27;20070;-84
2021/04/09 22:20:24;;;;;;;3.70;1.20;;;;;;;12.64;38.87;100742.16;5288054;27;20332;-84
2021/04/09 22:22:51;;;;;;;5.75;1.35;;;;;;;12.27;39.60;100745.09;5255133;27;20409;-84
2021/04/09 22:25:20;;;;;;;4.00;2.42;;;;;;;11.90;40.45;100742.69;5255548;27;20471;-85
2021/04/09 22:28:15;;;;;;;5.37;1.57;;;;;;;12.00;40.42;100743.50;5255956;27;20444;-85
2021/04/09 22:30:42;;;;;;;3.00;1.20;;;;;;;11.86;41.04;100740.09;5255377;27;20053;-85
2021/04/09 22:33:10;;;;;;;2.15;1.12;;;;;;;11.97;40.74;100739.16;5255772;27;20112;-85
2021/04/09 22:35:42;;;;;;;3.95;1.42;;;;;;;12.03;40.54;100739.13;5254782;27;20115;-84
2021/04/09 22:38:09;;;;;;;3.22;1.52;;;;;;;11.74;41.41;100739.25;5254957;27;20395;-85
2021/04/09 22:40:36;;;;;;;3.53;1.48;;;;;;;11.84;41.34;100742.69;5254990;27;20467;-84
2021/04/09 22:43:03;;;;;;;2.55;1.48;;;;;;;12.08;40.87;100743.47;5254798;27;20054;-84
2021/04/09 22:45:29;;;;;;;4.05;1.37;;;;;;;11.78;41.77;100743.59;5254959;27;20476;-84
2021/04/09 22:47:55;;;;;;;2.50;1.40;;;;;;;11.77;42.10;100746.25;5271069;27;20433;-84
2021/04/09 22:50:22;;;;;;;2.42;1.37;;;;;;;11.68;42.45;100744.53;5254744;27;20589;-85
2021/04/09 22:52:50;;;;;;;3.25;1.37;;;;;;;11.61;42.75;100742.81;5273315;27;20046;-84
2021/04/09 22:55:16;;;;;;;2.78;1.23;;;;;;;11.73;42.48;100741.87;5273627;27;20132;-85
2021/04/09 22:57:43;;;;;;;3.75;1.77;;;;;;;11.49;43.17;100734.97;5291744;27;20075;-84
2021/04/09 23:00:12;;;;;;;1.98;1.27;;;;;;;11.99;42.18;100731.22;5254576;27;20053;-85
